Time;durP1;ratioP1;P1;durP2;ratioP2;P2;SDS_P1;SDS_P2;PMS_P1;PMS_P2;Temp;Humidity;BMP_temperature;BMP_pressure;BME280_temperature;BME280_humidity;BME280_pressure;Samples;Min_cycle;Max_cycle;Signal;HPM_P1;HPM_P2
2022/12/22 03:28:50;;;;;;;10.67;6.87;;;;;9.30;99633.00;;;;9854160;30;20306;-80
2022/12/22 03:33:52;;;;;;;10.03;6.90;;;;;9.30;99615.00;;;;9795638;30;20574;-80
2022/12/22 03:38:54;;;;;;;8.10;6.13;;;;;9.30;99605.00;;;;9814542;30;20220;-80
2022/12/22 03:49:18;;;;;;;8.50;6.17;;;;;9.30;99613.00;;;;9838734;30;20203;-80
2022/12/22 03:54:24;;;;;;;10.53;6.80;;;;;9.30;99608.00;;;;9836815;30;20887;-80
2022/12/22 03:59:26;;;;;;;9.17;6.60;;;;;9.30;99608.00;;;;9838860;30;20227;-80
2022/12/22 04:04:28;;;;;;;10.00;6.57;;;;;9.20;99614.00;;;;9814343;30;20288;-80
2022/12/22 04:09:30;;;;;;;12.07;7.10;;;;;9.30;99617.00;;;;9806804;30;20251;-80
2022/12/22 04:14:32;;;;;;;10.70;6.10;;;;;9.30;99612.00;;;;9808557;30;20220;-80
2022/12/22 04:19:35;;;;;;;9.30;6.73;;;;;9.40;99614.00;;;;9810003;30;20208;-80
2022/12/22 04:24:37;;;;;;;9.23;5.90;;;;;9.40;99615.00;;;;9822241;30;20215;-80
2022/12/22 04:29:39;;;;;;;7.90;5.03;;;;;9.50;99617.00;;;;9808657;30;20208;-80
2022/12/22 04:34:41;;;;;;;8.67;5.30;;;;;9.60;99620.00;;;;9816567;30;20223;-80
2022/12/22 04:39:43;;;;;;;9.13;5.43;;;;;9.70;99627.00;;;;9822043;30;20522;-80
2022/12/22 04:44:45;;;;;;;7.27;4.87;;;;;9.70;99640.00;;;;9823349;30;20262;-81
2022/12/22 04:49:47;;;;;;;12.00;6.80;;;;;9.70;99642.00;;;;9807778;30;20285;-80
2022/12/22 04:54:49;;;;;;;13.43;8.67;;;;;9.70;99655.00;;;;9795582;30;20236;-80
2022/12/22 04:59:50;;;;;;;17.00;9.87;;;;;9.70;99665.00;;;;9831450;30;20235;-81
2022/12/22 05:04:52;;;;;;;15.00;9.73;;;;;9.70;99665.00;;;;9850787;30;20231;-80
2022/12/22 05:09:54;;;;;;;14.17;8.57;;;;;9.70;99667.00;;;;9823151;30;20212;-81
2022/12/22 05:14:56;;;;;;;15.17;9.33;;;;;9.60;99672.00;;;;9823072;30;20270;-80
2022/12/22 05:19:58;;;;;;;14.63;8.63;;;;;9.60;99674.00;;;;9836017;30;20197;-81
2022/12/22 05:25:00;;;;;;;15.67;9.10;;;;;9.60;99684.00;;;;9821516;30;20201;-80
2022/12/22 05:30:03;;;;;;;15.13;8.83;;;;;9.60;99692.00;;;;9821233;30;20211;-81
2022/12/22 05:35:06;;;;;;;16.37;9.17;;;;;9.60;99691.00;;;;9827672;30;20220;-80
2022/12/22 05:40:10;;;;;;;19.73;9.43;;;;;9.60;99722.00;;;;9806402;30;20282;-79
2022/12/22 05:45:19;;;;;;;21.27;10.33;;;;;9.70;99732.00;;;;9820998;30;20231;-80
2022/12/22 05:50:23;;;;;;;24.60;10.93;;;;;9.60;99738.00;;;;9826286;30;20252;-80
2022/12/22 05:55:33;;;;;;;27.63;11.60;;;;;9.60;99752.00;;;;9814937;30;20224;-79
2022/12/22 06:00:35;;;;;;;33.60;13.27;;;;;9.60;99754.00;;;;9827393;30;20644;-79
2022/12/22 06:05:37;;;;;;;32.93;13.07;;;;;9.70;99770.00;;;;9825826;30;20716;-80
2022/12/22 06:10:39;;;;;;;33.67;14.30;;;;;9.60;99774.00;;;;9790834;30;20647;-79
2022/12/22 06:15:41;;;;;;;37.33;14.30;;;;;9.70;99782.00;;;;9828839;30;20319;-80
2022/12/22 06:20:45;;;;;;;37.80;15.47;;;;;9.70;99788.00;;;;9819011;30;20295;-79
2022/12/22 06:25:54;;;;;;;41.20;15.60;;;;;9.70;99799.00;;;;9807099;30;20212;-79
2022/12/22 06:30:56;;;;;;;42.53;17.47;;;;;9.60;99805.00;;;;9829270;30;20684;-79
2022/12/22 06:36:04;;;;;;;39.10;16.33;;;;;9.60;99822.00;;;;9814296;30;20284;-80
2022/12/22 06:41:07;;;;;;;36.70;16.30;;;;;9.60;99832.00;;;;9800575;30;20200;-80
2022/12/22 06:46:09;;;;;;;39.43;16.60;;;;;9.50;99846.00;;;;9843002;30;20487;-79
2022/12/22 06:51:11;;;;;;;51.23;19.07;;;;;9.50;99859.00;;;;9801797;30;20311;-79
2022/12/22 06:56:13;;;;;;;59.17;20.00;;;;;9.50;99871.00;;;;9826481;30;20212;-79
2022/12/22 07:01:14;;;;;;;51.93;16.83;;;;;9.40;99876.00;;;;9824891;30;20291;-79
2022/12/22 07:06:19;;;;;;;52.73;17.77;;;;;9.40;99900.00;;;;9823993;30;20247;-79
2022/12/22 07:11:21;;;;;;;47.93;16.07;;;;;9.30;99901.00;;;;9826043;30;20224;-79
2022/12/22 07:16:23;;;;;;;58.63;19.97;;;;;9.30;99911.00;;;;9825782;30;20224;-79
2022/12/22 07:21:25;;;;;;;52.17;18.50;;;;;9.30;99920.00;;;;9805101;30;20226;-79
2022/12/22 07:26:27;;;;;;;46.53;17.50;;;;;9.30;99937.00;;;;9824788;30;20303;-79
2022/12/22 07:31:29;;;;;;;58.47;20.07;;;;;9.30;99952.00;;;;9809356;30;20216;-78
2022/12/22 07:36:31;;;;;;;44.43;17.93;;;;;9.20;99950.00;;;;9791292;30;20225;-78
2022/12/22 07:46:53;;;;;;;53.00;19.03;;;;;9.10;99976.00;;;;9823537;30;20211;-78
2022/12/22 07:51:57;;;;;;;54.97;20.40;;;;;9.10;99984.00;;;;9824007;30;20230;-78
2022/12/22 07:56:59;;;;;;;49.57;18.03;;;;;9.00;100001.00;;;;9823804;30;20677;-78
2022/12/22 08:02:01;;;;;;;55.57;19.13;;;;;8.90;100017.00;;;;9822206;30;20208;-78
2022/12/22 08:07:03;;;;;;;43.43;17.57;;;;;8.90;100039.00;;;;9806821;30;20255;-78
2022/12/22 08:12:05;;;;;;;49.73;16.33;;;;;9.00;100058.00;;;;9807792;30;20282;-80
2022/12/22 08:17:07;;;;;;;44.10;16.50;;;;;9.00;100063.00;;;;9808351;30;20220;-80
2022/12/22 08:22:09;;;;;;;47.43;17.40;;;;;9.00;100073.00;;;;9797355;30;20274;-78
2022/12/22 08:27:14;;;;;;;51.10;18.77;;;;;9.10;100090.00;;;;9830165;30;20193;-78
2022/12/22 08:32:26;;;;;;;66.67;21.00;;;;;9.10;100091.00;;;;9824387;30;20227;-78
2022/12/22 08:37:32;;;;;;;52.27;18.70;;;;;9.30;100109.00;;;;9822183;30;20223;-78
2022/12/22 08:42:34;;;;;;;50.53;18.67;;;;;9.20;100120.00;;;;9845608;30;20204;-78
2022/12/22 08:47:36;;;;;;;43.07;18.30;;;;;9.10;100121.00;;;;9821887;30;20631;-78
2022/12/22 08:52:38;;;;;;;43.67;17.23;;;;;9.00;100109.00;;;;9850219;30;20201;-78
2022/12/22 08:57:40;;;;;;;50.53;18.80;;;;;9.10;100125.00;;;;9800626;30;20306;-79
2022/12/22 09:02:42;;;;;;;52.23;19.73;;;;;9.20;100147.00;;;;9822931;30;20626;-78
2022/12/22 09:07:47;;;;;;;49.30;18.47;;;;;9.30;100154.00;;;;9816846;30;20224;-78
2022/12/22 09:12:50;;;;;;;38.53;15.87;;;;;9.30;100157.00;;;;9813219;30;20489;-78
2022/12/22 09:17:52;;;;;;;50.80;17.73;;;;;9.40;100157.00;;;;9834865;30;20250;-79
2022/12/22 09:22:54;;;;;;;50.77;18.47;;;;;9.50;100161.00;;;;9825027;30;20200;-78
2022/12/22 09:27:56;;;;;;;38.27;15.47;;;;;9.50;100167.00;;;;9826598;30;20208;-78
2022/12/22 09:32:58;;;;;;;32.90;15.63;;;;;9.50;100166.00;;;;9818164;30;20291;-80
2022/12/22 09:37:59;;;;;;;45.83;16.13;;;;;9.60;100178.00;;;;9831492;30;20212;-79
2022/12/22 09:43:03;;;;;;;32.53;13.17;;;;;9.50;100185.00;;;;9827359;30;20204;-78
2022/12/22 09:48:09;;;;;;;33.43;12.70;;;;;9.40;100191.00;;;;9806274;30;20200;-78
2022/12/22 09:53:20;;;;;;;27.10;12.53;;;;;9.60;100174.00;;;;9812994;30;20634;-79
2022/12/22 09:58:27;;;;;;;33.17;13.07;;;;;9.70;100187.00;;;;9813087;30;20224;-79
2022/12/22 10:03:53;;;;;;;30.90;13.43;;;;;10.00;100195.00;;;;9813088;30;20247;-78
2022/12/22 10:09:10;;;;;;;31.43;14.97;;;;;10.10;100198.00;;;;9818734;30;20208;-79
2022/12/22 10:14:38;;;;;;;32.07;14.30;;;;;10.00;100201.00;;;;9830924;30;20197;-79
2022/12/22 10:19:40;;;;;;;28.93;14.87;;;;;10.00;100209.00;;;;9811337;30;20217;-79
2022/12/22 10:24:42;;;;;;;30.13;14.47;;;;;10.00;100204.00;;;;9812015;30;20296;-79
2022/12/22 10:29:44;;;;;;;36.77;16.63;;;;;10.00;100220.00;;;;9813111;30;20197;-78
2022/12/22 10:35:12;;;;;;;34.30;16.77;;;;;10.00;100233.00;;;;9818781;30;20208;-78
2022/12/22 10:40:17;;;;;;;38.30;18.83;;;;;9.90;100242.00;;;;9829305;30;20241;-78
2022/12/22 10:45:23;;;;;;;32.47;15.07;;;;;9.80;100234.00;;;;9828912;30;20248;-78
2022/12/22 10:50:24;;;;;;;30.50;16.20;;;;;9.70;100245.00;;;;9828037;30;20295;-79
2022/12/22 10:55:28;;;;;;;29.43;14.80;;;;;9.60;100246.00;;;;9812207;30;20259;-78
2022/12/22 11:00:30;;;;;;;25.23;12.83;;;;;9.80;100242.00;;;;9797397;30;20718;-77
2022/12/22 11:05:32;;;;;;;21.10;11.93;;;;;9.80;100233.00;;;;9812971;30;20232;-78
2022/12/22 11:10:47;;;;;;;21.70;12.90;;;;;9.70;100237.00;;;;9810274;30;20236;-79
2022/12/22 11:16:02;;;;;;;21.37;11.27;;;;;9.80;100241.00;;;;9807796;30;20311;-78
2022/12/22 11:21:15;;;;;;;16.43;9.47;;;;;10.00;100221.00;;;;9812279;30;20226;-79
2022/12/22 11:26:58;;;;;;;19.50;10.57;;;;;10.60;100214.00;;;;9813541;30;20232;-79
2022/12/22 11:32:29;;;;;;;15.63;10.00;;;;;10.70;100201.00;;;;9780220;30;20208;-79
2022/12/22 11:37:52;;;;;;;15.00;9.23;;;;;10.60;100203.00;;;;9805962;30;20213;-79
2022/12/22 11:43:22;;;;;;;15.43;9.17;;;;;10.40;100189.00;;;;9812208;30;20220;-78
2022/12/22 11:48:36;;;;;;;12.07;7.40;;;;;10.40;100197.00;;;;9816473;30;20274;-78
2022/12/22 11:54:13;;;;;;;13.97;6.70;;;;;10.60;100180.00;;;;9835020;30;20223;-79
2022/12/22 11:59:27;;;;;;;13.50;6.60;;;;;10.60;100185.00;;;;9836775;30;20643;-79
2022/12/22 12:05:00;;;;;;;9.60;5.37;;;;;10.70;100171.00;;;;9803014;30;20327;-79
2022/12/22 12:10:30;;;;;;;11.37;7.13;;;;;11.50;100153.00;;;;9815330;30;20201;-79
2022/12/22 12:15:59;;;;;;;14.70;6.50;;;;;11.70;100143.00;;;;9802551;30;20197;-79
2022/12/22 12:21:26;;;;;;;6.43;5.20;;;;;11.90;100127.00;;;;9807475;30;20906;-78
2022/12/22 12:27:00;;;;;;;7.13;4.67;;;;;11.60;100128.00;;;;9788693;30;20224;-80
2022/12/22 12:32:20;;;;;;;10.53;4.27;;;;;11.70;100132.00;;;;9809559;30;20685;-79
2022/12/22 12:37:29;;;;;;;5.77;3.70;;;;;11.60;100132.00;;;;9829015;30;20224;-78
2022/12/22 12:42:38;;;;;;;6.37;3.43;;;;;11.20;100127.00;;;;9814076;30;20542;-79
2022/12/22 12:47:40;;;;;;;9.00;3.30;;;;;11.10;100124.00;;;;9819861;30;20630;-78
2022/12/22 12:52:47;;;;;;;3.33;3.03;;;;;11.00;100128.00;;;;9805394;30;20636;-80
2022/12/22 12:57:49;;;;;;;3.80;2.53;;;;;10.80;100116.00;;;;9819284;30;20213;-78
2022/12/22 13:02:56;;;;;;;5.07;2.20;;;;;10.50;100131.00;;;;9820972;30;20219;-79
2022/12/22 13:08:14;;;;;;;3.03;2.50;;;;;10.30;100115.00;;;;9798776;30;20220;-78
2022/12/22 13:13:22;;;;;;;3.53;2.10;;;;;10.10;100116.00;;;;9807305;30;20211;-78
2022/12/22 13:18:24;;;;;;;2.47;1.80;;;;;9.80;100111.00;;;;9806429;30;20208;-77
2022/12/22 13:23:29;;;;;;;5.60;2.50;;;;;9.50;100108.00;;;;9802502;30;20233;-78
2022/12/22 13:28:31;;;;;;;2.60;1.93;;;;;9.40;100100.00;;;;9829754;30;20239;-79
2022/12/22 13:33:37;;;;;;;2.10;1.90;;;;;9.30;100096.00;;;;9822873;30;20206;-78
2022/12/22 13:38:39;;;;;;;2.70;2.00;;;;;9.20;100075.00;;;;9812499;30;20708;-79
2022/12/22 13:43:45;;;;;;;4.30;2.10;;;;;9.20;100045.00;;;;9805911;30;20231;-78
2022/12/22 13:48:52;;;;;;;5.43;2.60;;;;;9.20;100065.00;;;;9812698;30;20204;-80
2022/12/22 13:54:00;;;;;;;6.10;2.90;;;;;9.40;100058.00;;;;9808256;30;20193;-80
2022/12/22 13:59:38;;;;;;;5.43;3.30;;;;;9.40;100041.00;;;;9823417;30;20216;-80
2022/12/22 14:04:43;;;;;;;5.83;3.20;;;;;9.50;100034.00;;;;9808465;30;20229;-80
2022/12/22 14:09:47;;;;;;;9.03;4.20;;;;;9.60;100021.00;;;;9824238;30;20211;-79
2022/12/22 14:14:52;;;;;;;8.67;3.37;;;;;9.50;100019.00;;;;9812998;30;20209;-80
2022/12/22 14:19:59;;;;;;;4.37;3.60;;;;;9.50;100000.00;;;;9831576;30;20223;-80
2022/12/22 14:25:16;;;;;;;7.93;4.20;;;;;9.60;99992.00;;;;9813962;30;20271;-78
2022/12/22 14:30:21;;;;;;;7.83;3.90;;;;;9.60;99992.00;;;;9827679;30;20212;-79
2022/12/22 14:35:28;;;;;;;6.70;3.93;;;;;9.60;99988.00;;;;9819808;30;20649;-79
2022/12/22 14:40:49;;;;;;;10.77;4.30;;;;;9.60;99979.00;;;;9840019;30;20274;-79
2022/12/22 14:46:07;;;;;;;15.53;4.53;;;;;9.80;99985.00;;;;9803431;30;20663;-79
2022/12/22 14:51:09;;;;;;;12.77;5.60;;;;;9.90;99978.00;;;;9811116;30;20693;-80
2022/12/22 14:56:13;;;;;;;14.97;5.23;;;;;9.90;99973.00;;;;9804665;30;20857;-78
2022/12/22 15:01:26;;;;;;;14.17;5.63;;;;;10.00;99972.00;;;;9817751;30;20201;-78
2022/12/22 15:06:39;;;;;;;15.57;5.33;;;;;10.00;99966.00;;;;9817232;30;20229;-78
2022/12/22 15:11:45;;;;;;;18.37;4.40;;;;;10.00;99964.00;;;;9826822;30;20782;-78
2022/12/22 15:16:47;;;;;;;15.47;4.33;;;;;10.10;99957.00;;;;9813713;30;20224;-79
2022/12/22 15:21:50;;;;;;;26.70;5.50;;;;;10.10;99952.00;;;;9825788;30;20254;-80
2022/12/22 15:26:52;;;;;;;19.23;4.63;;;;;10.10;99953.00;;;;9821665;30;20213;-78
2022/12/22 15:31:54;;;;;;;19.30;4.80;;;;;10.00;99952.00;;;;9809849;30;20196;-78
2022/12/22 15:36:56;;;;;;;26.70;5.37;;;;;10.00;99938.00;;;;9807155;30;20216;-78
2022/12/22 15:41:58;;;;;;;32.53;6.07;;;;;10.00;99930.00;;;;9813303;30;20942;-79
2022/12/22 15:47:00;;;;;;;29.63;5.70;;;;;10.00;99931.00;;;;9802142;30;20224;-79
2022/12/22 15:52:04;;;;;;;21.60;5.23;;;;;10.00;99932.00;;;;9765368;30;20236;-79
2022/12/22 15:57:11;;;;;;;34.67;6.27;;;;;10.10;99928.00;;;;9819889;30;20283;-80
2022/12/22 16:02:13;;;;;;;40.90;7.13;;;;;10.10;99932.00;;;;9821028;30;20208;-78
2022/12/22 16:07:15;;;;;;;37.73;7.20;;;;;10.10;99943.00;;;;9800699;30;20228;-78
2022/12/22 16:12:18;;;;;;;35.70;7.23;;;;;10.20;99928.00;;;;9829321;30;20920;-79
2022/12/22 16:17:22;;;;;;;46.67;8.03;;;;;10.20;99931.00;;;;9807871;30;20228;-79
2022/12/22 16:22:35;;;;;;;35.73;7.30;;;;;10.20;99919.00;;;;9822891;30;20196;-79
2022/12/22 16:27:37;;;;;;;48.73;10.13;;;;;10.20;99897.00;;;;9814167;30;20250;-80
2022/12/22 16:32:39;;;;;;;29.40;6.87;;;;;10.20;99890.00;;;;9815173;30;20200;-79
2022/12/22 16:37:41;;;;;;;34.50;6.17;;;;;10.30;99887.00;;;;9818235;30;20220;-80
2022/12/22 16:42:56;;;;;;;31.80;5.40;;;;;10.30;99888.00;;;;9830501;30;20212;-80
2022/12/22 16:48:29;;;;;;;35.23;6.73;;;;;10.30;99886.00;;;;9814720;30;20212;-79
2022/12/22 16:53:31;;;;;;;40.40;9.07;;;;;10.30;99877.00;;;;9836467;30;20205;-79
2022/12/22 16:58:33;;;;;;;42.57;7.57;;;;;10.30;99879.00;;;;9819950;30;20220;-79
2022/12/22 17:03:37;;;;;;;47.10;10.10;;;;;10.40;99881.00;;;;9820122;30;20566;-79
2022/12/22 17:08:42;;;;;;;41.97;8.37;;;;;10.40;99864.00;;;;9808013;30;20559;-79
2022/12/22 17:13:45;;;;;;;40.43;7.97;;;;;10.40;99856.00;;;;9789680;30;20259;-80
2022/12/22 17:18:47;;;;;;;33.33;7.40;;;;;10.40;99864.00;;;;9796512;30;20716;-79
2022/12/22 17:23:52;;;;;;;42.93;7.50;;;;;10.40;99867.00;;;;9810966;30;20669;-79
2022/12/22 17:28:54;;;;;;;39.67;7.10;;;;;10.40;99860.00;;;;9817359;30;20201;-80
2022/12/22 17:33:56;;;;;;;37.97;8.53;;;;;10.50;99864.00;;;;9817720;30;20215;-79
2022/12/22 17:38:59;;;;;;;75.63;24.17;;;;;10.50;99857.00;;;;9833338;30;20220;-79
2022/12/22 17:44:00;;;;;;;40.47;7.43;;;;;10.60;99857.00;;;;9823712;30;20288;-79
2022/12/22 17:49:03;;;;;;;37.13;5.33;;;;;10.70;99855.00;;;;9819580;30;20225;-79
2022/12/22 17:54:20;;;;;;;42.87;6.30;;;;;10.70;99851.00;;;;9816261;30;20232;-79
2022/12/22 17:59:22;;;;;;;33.50;5.83;;;;;10.60;99848.00;;;;9827087;30;20213;-79
2022/12/22 18:04:23;;;;;;;31.40;6.53;;;;;10.60;99840.00;;;;9834093;30;20251;-79
2022/12/22 18:09:25;;;;;;;28.20;4.73;;;;;10.50;99836.00;;;;9839039;30;20215;-79
2022/12/22 18:14:27;;;;;;;22.40;4.20;;;;;10.50;99839.00;;;;9827786;30;20882;-79
2022/12/22 18:19:30;;;;;;;23.87;4.30;;;;;10.40;99842.00;;;;9846836;30;20219;-80
2022/12/22 18:24:32;;;;;;;21.47;5.30;;;;;10.40;99842.00;;;;9820614;30;20524;-81
2022/12/22 18:29:34;;;;;;;22.90;6.00;;;;;10.40;99836.00;;;;9817350;30;20209;-81
2022/12/22 18:34:37;;;;;;;21.80;4.77;;;;;10.40;99833.00;;;;9811418;30;20225;-81
2022/12/22 18:39:39;;;;;;;18.93;4.70;;;;;10.30;99826.00;;;;9829860;30;20611;-80
2022/12/22 18:44:41;;;;;;;26.13;5.20;;;;;10.30;99829.00;;;;9806096;30;20299;-79
2022/12/22 18:49:43;;;;;;;22.90;6.27;;;;;10.30;99833.00;;;;9802227;30;20692;-80
2022/12/22 18:54:46;;;;;;;19.27;5.10;;;;;10.30;99839.00;;;;9788767;30;20291;-80
2022/12/22 18:59:48;;;;;;;19.27;5.00;;;;;10.30;99843.00;;;;9790457;30;20208;-80
2022/12/22 19:04:51;;;;;;;18.00;4.33;;;;;10.30;99850.00;;;;9813685;30;20252;-81
2022/12/22 19:09:53;;;;;;;18.40;3.83;;;;;10.30;99857.00;;;;9839273;30;20270;-80
2022/12/22 19:15:02;;;;;;;17.60;3.87;;;;;10.20;99861.00;;;;9826862;30;20208;-80
2022/12/22 19:20:05;;;;;;;10.27;3.70;;;;;10.20;99848.00;;;;9818836;30;20244;-80
2022/12/22 19:25:12;;;;;;;13.23;4.77;;;;;10.20;99845.00;;;;9824848;30;20211;-81
2022/12/22 19:30:17;;;;;;;18.37;4.60;;;;;10.10;99844.00;;;;9823731;30;20201;-81
2022/12/22 19:35:21;;;;;;;19.57;4.27;;;;;10.00;99850.00;;;;9790410;30;20216;-80
2022/12/22 19:40:27;;;;;;;13.47;3.70;;;;;10.00;99852.00;;;;9799102;30;20212;-80
2022/12/22 19:45:35;;;;;;;17.17;4.10;;;;;10.10;99856.00;;;;9812301;30;20197;-79
2022/12/22 19:50:37;;;;;;;15.70;4.33;;;;;10.10;99850.00;;;;9805710;30;20288;-80
2022/12/22 19:55:51;;;;;;;20.30;4.30;;;;;10.10;99839.00;;;;9832196;30;20201;-80
2022/12/22 20:00:53;;;;;;;14.13;4.20;;;;;10.00;99842.00;;;;9793011;30;20216;-80
2022/12/22 20:05:55;;;;;;;19.43;3.70;;;;;10.00;99837.00;;;;9806448;30;20773;-79
2022/12/22 20:10:58;;;;;;;13.67;3.77;;;;;10.00;99843.00;;;;9818146;30;20284;-80
2022/12/22 20:16:00;;;;;;;15.23;4.90;;;;;10.00;99841.00;;;;9805069;30;20215;-80
2022/12/22 20:21:06;;;;;;;22.23;4.27;;;;;10.00;99835.00;;;;9804613;30;20329;-80
2022/12/22 20:26:14;;;;;;;15.17;3.90;;;;;10.00;99823.00;;;;9814031;30;20211;-79
2022/12/22 20:31:19;;;;;;;14.47;3.80;;;;;10.10;99829.00;;;;9830714;30;20213;-79
2022/12/22 20:36:28;;;;;;;21.27;5.03;;;;;10.10;99829.00;;;;9812680;30;20216;-80
2022/12/22 20:41:30;;;;;;;16.50;5.30;;;;;10.10;99821.00;;;;9799986;30;20217;-80
2022/12/22 20:46:32;;;;;;;18.03;4.33;;;;;10.10;99827.00;;;;9820141;30;20459;-79
2022/12/22 20:51:34;;;;;;;13.20;4.40;;;;;10.10;99835.00;;;;9802028;30;20216;-79
2022/12/22 20:56:37;;;;;;;14.27;4.77;;;;;10.10;99833.00;;;;9815144;30;20244;-79
2022/12/22 21:01:39;;;;;;;14.87;5.20;;;;;10.10;99840.00;;;;9816127;30;20199;-81
2022/12/22 21:06:48;;;;;;;14.47;5.67;;;;;10.10;99826.00;;;;9814839;30;20240;-80
2022/12/22 21:11:50;;;;;;;16.80;5.50;;;;;10.00;99839.00;;;;9823289;30;20329;-79
2022/12/22 21:16:52;;;;;;;18.80;5.70;;;;;10.00;99828.00;;;;9809168;30;20631;-79
2022/12/22 21:21:54;;;;;;;13.70;5.10;;;;;10.10;99833.00;;;;9803672;30;20201;-79
2022/12/22 21:26:56;;;;;;;11.60;4.60;;;;;10.10;99825.00;;;;9820847;30;20215;-80
2022/12/22 21:31:58;;;;;;;19.50;5.70;;;;;10.20;99821.00;;;;9812825;30;20205;-79
2022/12/22 21:37:01;;;;;;;16.73;5.10;;;;;10.20;99836.00;;;;9800339;30;20258;-79
2022/12/22 21:42:04;;;;;;;10.73;5.10;;;;;10.20;99841.00;;;;9800190;30;20388;-78
2022/12/22 21:47:11;;;;;;;15.93;5.00;;;;;10.20;99841.00;;;;9801958;30;20248;-79
2022/12/22 21:52:13;;;;;;;16.97;5.53;;;;;10.20;99855.00;;;;9842808;30;20224;-80
2022/12/22 21:57:15;;;;;;;12.73;5.80;;;;;10.20;99863.00;;;;9810524;30;20217;-79
2022/12/22 22:02:17;;;;;;;13.53;5.60;;;;;10.10;99859.00;;;;9795425;30;20212;-80
2022/12/22 22:07:19;;;;;;;13.93;6.00;;;;;10.10;99867.00;;;;9831151;30;20240;-80
2022/12/22 22:12:35;;;;;;;18.90;5.30;;;;;10.10;99871.00;;;;9803145;30;20215;-79
2022/12/22 22:17:38;;;;;;;10.63;5.23;;;;;10.10;99865.00;;;;9818305;30;20219;-79
2022/12/22 22:22:40;;;;;;;19.30;6.60;;;;;10.00;99866.00;;;;9827706;30;20608;-79
2022/12/22 22:27:43;;;;;;;16.30;6.80;;;;;10.10;99853.00;;;;9807580;30;20227;-80
2022/12/22 22:32:48;;;;;;;19.37;6.80;;;;;10.00;99857.00;;;;9817719;30;20224;-79
2022/12/22 22:37:50;;;;;;;22.50;8.13;;;;;9.90;99856.00;;;;9801834;30;20242;-79
2022/12/22 22:42:52;;;;;;;17.30;6.63;;;;;9.80;99866.00;;;;9814157;30;20212;-79
2022/12/22 22:47:55;;;;;;;18.73;6.87;;;;;9.80;99883.00;;;;9801576;30;20201;-79
2022/12/22 22:52:57;;;;;;;17.97;7.70;;;;;9.90;99874.00;;;;9810241;30;20670;-81
2022/12/22 22:57:59;;;;;;;31.70;9.33;;;;;10.00;99868.00;;;;9809523;30;20221;-80
2022/12/22 23:03:00;;;;;;;17.77;7.83;;;;;10.00;99878.00;;;;9801016;30;20296;-79
2022/12/22 23:08:03;;;;;;;17.07;8.07;;;;;10.00;99884.00;;;;9826676;30;20240;-79
2022/12/22 23:13:05;;;;;;;20.00;8.80;;;;;10.10;99876.00;;;;9802192;30;20208;-80
2022/12/22 23:18:07;;;;;;;22.13;8.83;;;;;10.20;99882.00;;;;9806083;30;20242;-81
2022/12/22 23:23:09;;;;;;;33.57;10.90;;;;;10.20;99882.00;;;;9819724;30;20343;-79
2022/12/22 23:28:11;;;;;;;22.23;9.70;;;;;10.20;99886.00;;;;9824303;30;20197;-79
2022/12/22 23:33:14;;;;;;;28.83;10.73;;;;;10.20;99878.00;;;;9805687;30;20201;-78
2022/12/22 23:38:19;;;;;;;23.37;9.03;;;;;10.20;99881.00;;;;9807553;30;20217;-79
2022/12/22 23:43:21;;;;;;;24.47;9.40;;;;;10.30;99894.00;;;;9810666;30;20213;-80
2022/12/22 23:48:22;;;;;;;19.73;9.13;;;;;10.30;99897.00;;;;9794381;30;20224;-79
2022/12/22 23:53:24;;;;;;;18.67;8.10;;;;;10.20;99880.00;;;;9794476;30;20196;-79
2022/12/22 23:58:26;;;;;;;19.03;8.27;;;;;10.00;99889.00;;;;9806280;30;20259;-80
